EHWO/WOE METAR and TAF weather

Enter ICAO airport designator
Station Type Date Time Source
EHWO METAR 2020/01/22 12:26 UTC NOAA

EHWO 221226Z AUTO 25004KT 1100 BR BKN001 BKN003 OVC004 04/04 Q1036 RED


Station Type Date Time Source
EHWO Decoded METAR 2020/01/22 12:26 UTC NOAA

Woensdrecht, Netherlands (EHWO) 51-27N 004-20E 17M
Jan 22, 2020 - 07:26 AM EST / 2020.01.22 1226 UTC
Wind: from the WSW (250 degrees) at 5 MPH (4 KT):0
Visibility: less than 1 mile:0
Sky conditions: overcast
Weather: mist
Temperature: 39 F (4 C)
Dew Point: 39 F (4 C)
Relative Humidity: 100%
Pressure (altimeter): 30.59 in. Hg (1036 hPa)
ob: EHWO 221226Z AUTO 25004KT 1100 BR BKN001 BKN003 OVC004 04/04 Q1036 RED
cycle: 12

Station Type Date Time Source
EHWO TAF 2020/01/22 10:57 UTC NOAA

TAF EHWO 220948Z 2210/2222 22003KT 2000 BR BKN002
TEMPO 2210/2220 1200 BR -DZ BKN001 PROB40
TEMPO 2210/2220 0800 FG
BECMG 2219/2222 0800 FG

Example: see airport list